createdAt,value
2023-01-19T00:01:33.658Z,995.40
2023-01-19T00:04:06.819Z,995.40
2023-01-19T00:06:39.843Z,995.41
2023-01-19T00:09:12.773Z,995.42
2023-01-19T00:11:45.765Z,995.42
2023-01-19T00:14:18.845Z,995.43
2023-01-19T00:16:51.863Z,995.45
2023-01-19T00:19:24.856Z,995.48
2023-01-19T00:21:57.816Z,995.51
2023-01-19T00:24:30.835Z,995.52
2023-01-19T00:27:03.755Z,995.52
2023-01-19T00:29:36.836Z,995.54
2023-01-19T00:32:09.751Z,995.54
2023-01-19T00:34:42.823Z,995.56
2023-01-19T00:37:15.858Z,995.59
2023-01-19T00:39:48.882Z,995.60
2023-01-19T00:42:21.731Z,995.61
2023-01-19T00:44:54.834Z,995.64
2023-01-19T00:47:27.837Z,995.68
2023-01-19T00:50:06.843Z,995.68
2023-01-19T00:52:39.805Z,995.71
2023-01-19T00:55:12.809Z,995.73
2023-01-19T00:57:45.775Z,995.77
2023-01-19T01:00:18.885Z,995.79
2023-01-19T01:02:52.060Z,995.81
2023-01-19T01:05:25.772Z,995.83
2023-01-19T01:07:58.948Z,995.86
2023-01-19T01:10:31.820Z,995.86
2023-01-19T01:13:19.942Z,995.88
2023-01-19T01:15:37.977Z,995.91
2023-01-19T01:18:11.809Z,995.93
2023-01-19T01:20:44.898Z,995.95
2023-01-19T01:23:17.821Z,995.96
2023-01-19T01:25:50.941Z,995.95
2023-01-19T01:28:23.811Z,995.96
2023-01-19T01:30:56.811Z,995.97
2023-01-19T01:33:40.455Z,995.98
2023-01-19T01:36:02.941Z,995.98
2023-01-19T01:38:35.913Z,996.00
2023-01-19T01:41:09.065Z,996.00
2023-01-19T01:43:42.968Z,996.00
2023-01-19T01:46:16.055Z,996.03
2023-01-19T01:48:48.975Z,996.03
2023-01-19T01:51:24.806Z,996.03
2023-01-19T01:53:57.872Z,996.04
2023-01-19T01:56:31.021Z,996.05
2023-01-19T01:59:03.961Z,996.06
2023-01-19T02:01:37.362Z,996.06
2023-01-19T02:04:10.889Z,996.07
2023-01-19T02:06:43.964Z,996.07
2023-01-19T02:09:17.111Z,996.08
2023-01-19T02:11:50.911Z,996.08
2023-01-19T02:14:23.910Z,996.08
2023-01-19T02:16:57.037Z,996.08
2023-01-19T02:19:29.899Z,996.08
2023-01-19T02:22:04.888Z,996.06
2023-01-19T02:24:38.019Z,996.06
2023-01-19T02:27:10.920Z,996.08
2023-01-19T02:29:43.924Z,996.05
2023-01-19T02:32:16.906Z,996.05
2023-01-19T02:34:50.143Z,996.06
2023-01-19T02:37:23.885Z,996.05
2023-01-19T02:39:57.032Z,996.06
2023-01-19T02:42:30.040Z,996.05
2023-01-19T02:45:02.947Z,996.06
2023-01-19T02:47:35.960Z,996.07
2023-01-19T02:50:09.132Z,996.07
2023-01-19T02:52:41.939Z,996.09
2023-01-19T02:55:14.692Z,996.09
2023-01-19T02:57:48.083Z,996.09
2023-01-19T03:00:21.097Z,996.10
2023-01-19T03:02:54.125Z,996.10
2023-01-19T03:05:27.132Z,996.10
2023-01-19T03:07:59.973Z,996.09
2023-01-19T03:10:32.875Z,996.09
2023-01-19T03:13:05.978Z,996.09
2023-01-19T03:15:39.189Z,996.09
2023-01-19T03:18:12.156Z,996.10
2023-01-19T03:20:44.914Z,996.12
2023-01-19T03:23:17.973Z,996.15
2023-01-19T03:25:51.033Z,996.18
2023-01-19T03:28:23.981Z,996.17
2023-01-19T03:30:57.194Z,996.19
2023-01-19T03:33:29.987Z,996.20
2023-01-19T03:36:03.042Z,996.20
2023-01-19T03:38:36.041Z,996.21
2023-01-19T03:41:09.122Z,996.22
2023-01-19T03:43:42.091Z,996.23
2023-01-19T03:46:19.131Z,996.24
2023-01-19T03:48:52.060Z,996.23
2023-01-19T03:51:25.080Z,996.22
2023-01-19T03:53:57.948Z,996.22
2023-01-19T03:56:31.044Z,996.22
2023-01-19T03:59:04.127Z,996.22
2023-01-19T04:01:37.286Z,996.21
2023-01-19T04:04:10.039Z,996.23
2023-01-19T04:06:43.222Z,996.24
2023-01-19T04:09:17.548Z,996.24
2023-01-19T04:11:49.112Z,996.25
2023-01-19T04:14:22.103Z,996.25
2023-01-19T04:16:55.307Z,996.25
2023-01-19T04:19:29.379Z,996.26
2023-01-19T04:22:03.127Z,996.26
2023-01-19T04:24:36.092Z,996.24
2023-01-19T04:27:09.098Z,996.24
2023-01-19T04:29:42.259Z,996.23
2023-01-19T04:32:19.109Z,996.23
2023-01-19T04:34:52.123Z,996.23
2023-01-19T04:37:25.231Z,996.23
2023-01-19T04:39:57.889Z,996.23
2023-01-19T04:42:31.157Z,996.22
2023-01-19T04:45:04.096Z,996.22
2023-01-19T04:47:37.336Z,996.25
2023-01-19T04:50:10.997Z,996.26
2023-01-19T04:52:47.853Z,996.27
2023-01-19T04:55:21.262Z,996.28
2023-01-19T04:57:54.207Z,996.26
2023-01-19T05:00:27.378Z,996.27
2023-01-19T05:03:01.784Z,996.26
2023-01-19T05:05:34.310Z,996.26
2023-01-19T05:08:07.254Z,996.25
2023-01-19T05:10:39.879Z,996.25
2023-01-19T05:13:13.187Z,996.24
2023-01-19T05:15:46.329Z,996.25
2023-01-19T05:18:19.128Z,996.27
2023-01-19T05:20:52.033Z,996.27
2023-01-19T05:23:24.923Z,996.29
2023-01-19T05:25:58.374Z,996.29
2023-01-19T05:28:32.153Z,996.30
2023-01-19T05:31:05.256Z,996.32
2023-01-19T05:33:42.104Z,996.32
2023-01-19T05:36:15.327Z,996.34
2023-01-19T05:38:50.053Z,996.34
2023-01-19T05:41:23.267Z,996.36
2023-01-19T05:43:56.170Z,996.37
2023-01-19T05:46:29.115Z,996.40
2023-01-19T05:49:02.338Z,996.41
2023-01-19T05:51:35.238Z,996.41
2023-01-19T05:54:08.299Z,996.41
2023-01-19T05:56:55.284Z,996.41
2023-01-19T05:59:28.242Z,996.42
2023-01-19T06:02:01.297Z,996.45
2023-01-19T06:04:34.129Z,996.46
2023-01-19T06:07:07.387Z,996.49
2023-01-19T06:09:40.317Z,996.51
2023-01-19T06:12:13.297Z,996.54
2023-01-19T06:14:46.227Z,996.57
2023-01-19T06:17:19.388Z,996.61
2023-01-19T06:19:52.264Z,996.64
2023-01-19T06:22:25.303Z,996.68
2023-01-19T06:24:58.231Z,996.71
2023-01-19T06:27:31.285Z,996.72
2023-01-19T06:30:04.261Z,996.73
2023-01-19T06:32:37.500Z,996.75
2023-01-19T06:35:10.510Z,996.77
2023-01-19T06:37:44.297Z,996.81
2023-01-19T06:40:17.415Z,996.82
2023-01-19T06:42:50.123Z,996.84
2023-01-19T06:45:23.322Z,996.84
2023-01-19T06:47:56.436Z,996.86
2023-01-19T06:50:29.374Z,996.87
2023-01-19T06:53:02.839Z,996.89
2023-01-19T06:55:35.440Z,996.90
2023-01-19T06:58:22.368Z,996.92
2023-01-19T07:00:55.589Z,996.94
2023-01-19T07:03:28.485Z,996.93
2023-01-19T07:06:01.476Z,996.96
2023-01-19T07:08:34.426Z,996.97
2023-01-19T07:11:26.597Z,996.99
2023-01-19T07:13:40.524Z,997.01
2023-01-19T07:16:13.539Z,997.05
2023-01-19T07:18:46.489Z,997.10
2023-01-19T07:21:19.356Z,997.15
2023-01-19T07:23:52.244Z,997.18
2023-01-19T07:26:25.179Z,997.22
2023-01-19T07:28:58.525Z,997.26
2023-01-19T07:31:31.618Z,997.29
2023-01-19T07:34:04.536Z,997.33
2023-01-19T07:36:37.511Z,997.37
2023-01-19T07:39:10.417Z,997.41
2023-01-19T07:41:43.378Z,997.44
2023-01-19T07:44:16.250Z,997.47
2023-01-19T07:46:49.508Z,997.49
2023-01-19T07:49:22.604Z,997.52
2023-01-19T07:51:55.412Z,997.54
2023-01-19T07:54:28.521Z,997.56
2023-01-19T07:57:01.340Z,997.58
2023-01-19T07:59:34.601Z,997.57
2023-01-19T08:02:08.597Z,997.58
2023-01-19T08:04:41.716Z,997.59
2023-01-19T08:07:15.423Z,997.59
2023-01-19T08:09:48.556Z,997.59
2023-01-19T08:12:25.377Z,997.57
2023-01-19T08:14:58.539Z,997.57
2023-01-19T08:17:31.485Z,997.58
2023-01-19T08:20:04.605Z,997.58
2023-01-19T08:22:37.519Z,997.58
2023-01-19T08:25:10.661Z,997.57
2023-01-19T08:27:44.465Z,997.57
2023-01-19T08:30:17.367Z,997.57
2023-01-19T08:32:50.237Z,997.58
2023-01-19T08:35:23.397Z,997.58
2023-01-19T08:37:56.577Z,997.59
2023-01-19T08:40:29.396Z,997.60
2023-01-19T08:43:02.836Z,997.59
2023-01-19T08:45:35.641Z,997.60
2023-01-19T08:48:08.581Z,997.60
2023-01-19T08:50:42.391Z,997.60
2023-01-19T08:53:15.625Z,997.60
2023-01-19T08:55:48.617Z,997.59
2023-01-19T08:58:21.620Z,997.61
2023-01-19T09:00:54.817Z,997.60
2023-01-19T09:03:28.585Z,997.60
2023-01-19T09:06:01.689Z,997.61
2023-01-19T09:08:34.636Z,997.62
2023-01-19T09:11:07.581Z,997.63
2023-01-19T09:13:40.650Z,997.62
2023-01-19T09:16:13.950Z,997.63
2023-01-19T09:18:46.585Z,997.62
2023-01-19T09:21:19.562Z,997.62
2023-01-19T09:23:52.606Z,997.62
2023-01-19T09:26:25.681Z,997.63
2023-01-19T09:28:58.674Z,997.63
2023-01-19T09:31:31.771Z,997.62
2023-01-19T09:34:04.495Z,997.63
2023-01-19T09:36:39.269Z,997.62
2023-01-19T09:39:12.427Z,997.60
2023-01-19T09:41:45.613Z,997.60
2023-01-19T09:44:18.626Z,997.61
2023-01-19T09:46:51.791Z,997.61
2023-01-19T09:49:24.699Z,997.61
2023-01-19T09:51:58.508Z,997.62
2023-01-19T09:54:31.503Z,997.65
2023-01-19T09:57:04.759Z,997.66
2023-01-19T09:59:37.524Z,997.67
2023-01-19T10:02:10.633Z,997.68
2023-01-19T10:04:43.821Z,997.68
2023-01-19T10:07:16.645Z,997.72
2023-01-19T10:09:49.441Z,997.73
2023-01-19T10:12:22.718Z,997.77
2023-01-19T10:14:55.670Z,997.78
2023-01-19T10:17:28.640Z,997.79
2023-01-19T10:20:01.765Z,997.81
2023-01-19T10:22:34.725Z,997.82
2023-01-19T10:25:07.664Z,997.84
2023-01-19T10:27:40.774Z,997.86
2023-01-19T10:30:13.718Z,997.87
2023-01-19T10:32:46.659Z,997.89
2023-01-19T10:35:19.507Z,997.90
2023-01-19T10:37:52.716Z,997.92
2023-01-19T10:40:25.704Z,997.92
2023-01-19T10:42:59.169Z,997.91
2023-01-19T10:45:31.850Z,997.92
2023-01-19T10:48:04.798Z,997.90
2023-01-19T10:50:37.509Z,997.88
2023-01-19T10:53:10.567Z,997.88
2023-01-19T10:55:43.857Z,997.87
2023-01-19T10:58:18.903Z,997.87
2023-01-19T11:00:52.854Z,997.87
2023-01-19T11:03:26.001Z,997.87
2023-01-19T11:05:58.755Z,997.88
2023-01-19T11:08:31.880Z,997.88
2023-01-19T11:11:04.746Z,997.86
2023-01-19T11:13:37.844Z,997.83
2023-01-19T11:16:12.392Z,997.81
2023-01-19T11:18:44.520Z,997.80
2023-01-19T11:21:17.460Z,997.79
2023-01-19T11:23:50.648Z,997.76
2023-01-19T11:26:26.831Z,997.76
2023-01-19T11:28:59.523Z,997.77
2023-01-19T11:31:32.801Z,997.75
2023-01-19T11:34:05.843Z,997.73
2023-01-19T11:36:38.857Z,997.73
2023-01-19T11:39:17.566Z,997.72
2023-01-19T11:41:50.862Z,997.72
2023-01-19T11:44:23.914Z,997.71
2023-01-19T11:46:56.816Z,997.71
2023-01-19T11:49:29.785Z,997.72
2023-01-19T11:52:02.902Z,997.72
2023-01-19T11:54:35.888Z,997.72
2023-01-19T11:57:08.620Z,997.71
2023-01-19T11:59:41.911Z,997.69
2023-01-19T12:02:14.851Z,997.67
2023-01-19T12:04:47.914Z,997.68
2023-01-19T12:07:22.779Z,997.68
2023-01-19T12:09:55.792Z,997.68
2023-01-19T12:12:28.923Z,997.68
2023-01-19T12:15:01.832Z,997.69
2023-01-19T12:17:34.891Z,997.70
2023-01-19T12:20:07.843Z,997.70
2023-01-19T12:22:40.817Z,997.69
2023-01-19T12:25:13.879Z,997.68
2023-01-19T12:27:46.951Z,997.68
2023-01-19T12:30:19.919Z,997.66
2023-01-19T12:32:53.015Z,997.66
2023-01-19T12:35:26.839Z,997.65
2023-01-19T12:37:59.885Z,997.63
2023-01-19T12:40:33.014Z,997.62
2023-01-19T12:43:05.939Z,997.61
2023-01-19T12:45:38.968Z,997.59
2023-01-19T12:48:11.845Z,997.58
2023-01-19T12:50:44.928Z,997.57
2023-01-19T12:53:17.971Z,997.56
2023-01-19T12:55:50.975Z,997.55
2023-01-19T12:58:23.863Z,997.56
2023-01-19T13:00:57.015Z,997.56
2023-01-19T13:03:29.926Z,997.55
2023-01-19T13:06:03.087Z,997.55
2023-01-19T13:08:36.958Z,997.55
2023-01-19T13:11:09.931Z,997.54
2023-01-19T13:13:43.005Z,997.54
2023-01-19T13:16:15.936Z,997.54
2023-01-19T13:18:49.049Z,997.54
2023-01-19T13:21:21.779Z,997.53
2023-01-19T13:23:54.646Z,997.52
2023-01-19T13:26:27.765Z,997.52
2023-01-19T13:29:00.991Z,997.53
2023-01-19T13:31:34.069Z,997.55
2023-01-19T13:34:07.058Z,997.56
2023-01-19T13:36:39.796Z,997.56
2023-01-19T13:39:13.050Z,997.56
2023-01-19T13:41:46.084Z,997.57
2023-01-19T13:44:19.026Z,997.57
2023-01-19T13:46:51.877Z,997.58
2023-01-19T13:49:25.065Z,997.59
2023-01-19T13:51:57.999Z,997.60
2023-01-19T13:54:31.083Z,997.61
2023-01-19T13:57:04.050Z,997.61
2023-01-19T13:59:37.088Z,997.63
2023-01-19T14:02:10.108Z,997.64
2023-01-19T14:04:42.989Z,997.65
2023-01-19T14:07:15.973Z,997.65
2023-01-19T14:09:48.997Z,997.65
2023-01-19T14:12:22.005Z,997.66
2023-01-19T14:14:54.698Z,997.68
2023-01-19T14:17:28.084Z,997.70
2023-01-19T14:20:01.114Z,997.71
2023-01-19T14:22:34.008Z,997.72
2023-01-19T14:25:07.508Z,997.73
2023-01-19T14:27:39.836Z,997.73
2023-01-19T14:30:12.768Z,997.73
2023-01-19T14:32:45.730Z,997.75
2023-01-19T14:35:18.797Z,997.75
2023-01-19T14:37:51.987Z,997.77
2023-01-19T14:40:24.942Z,997.78
2023-01-19T14:42:57.913Z,997.79
2023-01-19T14:45:30.899Z,997.79
2023-01-19T14:48:03.758Z,997.80
2023-01-19T14:50:36.930Z,997.81
2023-01-19T14:53:10.023Z,997.82
2023-01-19T14:55:43.156Z,997.84
2023-01-19T14:58:16.131Z,997.85
2023-01-19T15:00:49.101Z,997.85
2023-01-19T15:03:25.011Z,997.87
2023-01-19T15:05:55.058Z,997.87
2023-01-19T15:08:27.804Z,997.90
2023-01-19T15:11:01.360Z,997.92
2023-01-19T15:13:35.000Z,997.92
2023-01-19T15:16:07.880Z,997.93
2023-01-19T15:18:40.814Z,997.95
2023-01-19T15:21:14.118Z,997.95
2023-01-19T15:23:47.093Z,997.97
2023-01-19T15:26:19.901Z,997.98
2023-01-19T15:28:53.043Z,997.99
2023-01-19T15:31:26.057Z,998.00
2023-01-19T15:33:58.840Z,998.01
2023-01-19T15:36:32.046Z,998.02
2023-01-19T15:39:05.083Z,998.04
2023-01-19T15:41:38.101Z,998.04
2023-01-19T15:44:11.175Z,998.05
2023-01-19T15:46:43.834Z,998.06
2023-01-19T15:49:16.835Z,998.08
2023-01-19T15:51:50.138Z,998.09
2023-01-19T15:54:23.137Z,998.11
2023-01-19T15:56:56.121Z,998.11
2023-01-19T15:59:29.267Z,998.11
2023-01-19T16:02:02.301Z,998.12
2023-01-19T16:04:35.138Z,998.12
2023-01-19T16:07:08.176Z,998.11
2023-01-19T16:09:41.148Z,998.11
2023-01-19T16:12:14.191Z,998.11
2023-01-19T16:14:47.288Z,998.11
2023-01-19T16:17:20.183Z,998.11
2023-01-19T16:19:53.283Z,998.12
2023-01-19T16:22:27.253Z,998.13
2023-01-19T16:25:00.303Z,998.14
2023-01-19T16:27:33.163Z,998.16
2023-01-19T16:30:20.345Z,998.19
2023-01-19T16:32:52.933Z,998.20
2023-01-19T16:35:26.346Z,998.22
2023-01-19T16:37:59.234Z,998.23
2023-01-19T16:40:32.280Z,998.25
2023-01-19T16:43:05.057Z,998.27
2023-01-19T16:45:38.394Z,998.29
2023-01-19T16:48:11.255Z,998.31
2023-01-19T16:50:44.152Z,998.30
2023-01-19T16:53:17.213Z,998.32
2023-01-19T16:55:50.318Z,998.34
2023-01-19T16:58:23.237Z,998.35
2023-01-19T17:00:56.382Z,998.37
2023-01-19T17:03:29.023Z,998.38
2023-01-19T17:06:02.111Z,998.39
2023-01-19T17:08:35.240Z,998.39
2023-01-19T17:11:13.867Z,998.42
2023-01-19T17:13:47.163Z,998.44
2023-01-19T17:16:20.169Z,998.46
2023-01-19T17:18:52.972Z,998.47
2023-01-19T17:21:25.977Z,998.48
2023-01-19T17:23:59.293Z,998.49
2023-01-19T17:26:32.137Z,998.50
2023-01-19T17:29:05.210Z,998.49
2023-01-19T17:31:38.240Z,998.49
2023-01-19T17:34:11.309Z,998.49
2023-01-19T17:36:46.364Z,998.51
2023-01-19T17:39:19.040Z,998.51
2023-01-19T17:41:52.417Z,998.51
2023-01-19T17:44:25.420Z,998.52
2023-01-19T17:46:59.950Z,998.53
2023-01-19T17:49:33.205Z,998.53
2023-01-19T17:52:06.194Z,998.54
2023-01-19T17:54:39.051Z,998.58
2023-01-19T17:57:12.087Z,998.59
2023-01-19T17:59:45.236Z,998.60
2023-01-19T18:02:18.238Z,998.63
2023-01-19T18:04:51.057Z,998.63
2023-01-19T18:07:24.205Z,998.63
2023-01-19T18:09:58.263Z,998.63
2023-01-19T18:12:30.152Z,998.64
2023-01-19T18:15:03.121Z,998.66
2023-01-19T18:17:36.180Z,998.65
2023-01-19T18:20:09.101Z,998.67
2023-01-19T18:22:42.238Z,998.68
2023-01-19T18:25:15.352Z,998.71
2023-01-19T18:27:48.406Z,998.72
2023-01-19T18:30:21.516Z,998.73
2023-01-19T18:32:54.463Z,998.77
2023-01-19T18:35:27.207Z,998.77
2023-01-19T18:38:00.472Z,998.79
2023-01-19T18:40:33.119Z,998.80
2023-01-19T18:43:06.406Z,998.81
2023-01-19T18:45:39.383Z,998.82
2023-01-19T18:48:12.462Z,998.83
2023-01-19T18:50:59.392Z,998.83
2023-01-19T18:53:32.254Z,998.85
2023-01-19T18:56:05.435Z,998.86
2023-01-19T18:58:38.281Z,998.88
2023-01-19T19:01:11.224Z,998.88
2023-01-19T19:03:44.247Z,998.89
2023-01-19T19:06:17.359Z,998.89
2023-01-19T19:08:50.189Z,998.91
2023-01-19T19:11:23.213Z,998.93
2023-01-19T19:13:56.194Z,998.93
2023-01-19T19:16:29.449Z,998.94
2023-01-19T19:19:02.371Z,998.94
2023-01-19T19:21:35.451Z,998.94
2023-01-19T19:24:08.202Z,998.94
2023-01-19T19:26:41.359Z,998.94
2023-01-19T19:29:14.191Z,998.94
2023-01-19T19:31:47.251Z,998.94
2023-01-19T19:34:20.343Z,998.96
2023-01-19T19:36:53.238Z,998.98
2023-01-19T19:39:26.584Z,999.00
2023-01-19T19:42:05.540Z,999.02
2023-01-19T19:44:38.487Z,999.03
2023-01-19T19:47:11.441Z,999.05
2023-01-19T19:49:44.417Z,999.06
2023-01-19T19:52:17.495Z,999.06
2023-01-19T19:54:50.314Z,999.08
2023-01-19T19:57:23.605Z,999.09
2023-01-19T19:59:56.342Z,999.10
2023-01-19T20:02:29.427Z,999.11
2023-01-19T20:05:02.514Z,999.11
2023-01-19T20:07:35.224Z,999.12
2023-01-19T20:10:08.551Z,999.11
2023-01-19T20:12:41.657Z,999.11
2023-01-19T20:15:14.245Z,999.13
2023-01-19T20:17:47.658Z,999.14
2023-01-19T20:20:20.562Z,999.15
2023-01-19T20:22:59.605Z,999.17
2023-01-19T20:25:32.283Z,999.18
2023-01-19T20:28:05.544Z,999.19
2023-01-19T20:30:38.577Z,999.19
2023-01-19T20:33:11.292Z,999.20
2023-01-19T20:35:44.699Z,999.23
2023-01-19T20:38:17.294Z,999.25
2023-01-19T20:40:50.417Z,999.26
2023-01-19T20:43:23.739Z,999.28
2023-01-19T20:45:57.600Z,999.30
2023-01-19T20:48:30.676Z,999.31
2023-01-19T20:51:03.477Z,999.32
2023-01-19T20:53:36.731Z,999.32
2023-01-19T20:56:09.610Z,999.32
2023-01-19T20:58:42.525Z,999.33
2023-01-19T21:01:15.487Z,999.34
2023-01-19T21:03:48.724Z,999.34
2023-01-19T21:06:21.766Z,999.34
2023-01-19T21:08:54.476Z,999.37
2023-01-19T21:11:27.762Z,999.37
2023-01-19T21:14:00.350Z,999.39
2023-01-19T21:16:33.523Z,999.39
2023-01-19T21:19:06.533Z,999.41
2023-01-19T21:21:39.785Z,999.42
2023-01-19T21:24:26.738Z,999.43
2023-01-19T21:26:59.670Z,999.46
2023-01-19T21:29:32.778Z,999.48
2023-01-19T21:32:05.677Z,999.51
2023-01-19T21:34:38.378Z,999.54
2023-01-19T21:37:11.392Z,999.55
2023-01-19T21:39:44.569Z,999.57
2023-01-19T21:42:17.692Z,999.60
2023-01-19T21:44:50.475Z,999.62
2023-01-19T21:47:23.408Z,999.64
2023-01-19T21:49:56.619Z,999.66
2023-01-19T21:52:29.623Z,999.68
2023-01-19T21:55:02.457Z,999.70
2023-01-19T21:57:35.627Z,999.72
2023-01-19T22:00:08.803Z,999.73
2023-01-19T22:02:45.027Z,999.74
2023-01-19T22:05:14.963Z,999.78
2023-01-19T22:07:47.571Z,999.82
2023-01-19T22:10:34.476Z,999.85
2023-01-19T22:13:07.725Z,999.87
2023-01-19T22:15:40.766Z,999.88
2023-01-19T22:18:13.775Z,999.89
2023-01-19T22:21:00.743Z,999.91
2023-01-19T22:23:33.846Z,999.94
2023-01-19T22:26:06.813Z,999.95
2023-01-19T22:28:42.631Z,999.99
2023-01-19T22:31:15.971Z,1000.00
2023-01-19T22:33:48.857Z,1000.04
2023-01-19T22:36:21.863Z,1000.07
2023-01-19T22:38:54.758Z,1000.06
2023-01-19T22:41:27.903Z,1000.05
2023-01-19T22:44:00.857Z,1000.05
2023-01-19T22:46:33.840Z,1000.07
2023-01-19T22:49:06.864Z,1000.09
2023-01-19T22:51:39.778Z,1000.10
2023-01-19T22:54:12.741Z,1000.11
2023-01-19T22:56:45.826Z,1000.12
2023-01-19T22:59:18.892Z,1000.12
2023-01-19T23:01:51.984Z,1000.13
2023-01-19T23:04:24.858Z,1000.13
2023-01-19T23:06:57.874Z,1000.13
2023-01-19T23:09:30.863Z,1000.14
2023-01-19T23:12:03.928Z,1000.14
2023-01-19T23:14:36.949Z,1000.14
2023-01-19T23:17:10.840Z,1000.14
2023-01-19T23:19:43.810Z,1000.14
2023-01-19T23:22:16.818Z,1000.15
2023-01-19T23:24:49.958Z,1000.17
2023-01-19T23:27:22.817Z,1000.18
2023-01-19T23:29:55.845Z,1000.19
2023-01-19T23:32:32.676Z,1000.20
2023-01-19T23:35:05.828Z,1000.20
2023-01-19T23:37:38.727Z,1000.21
2023-01-19T23:40:11.845Z,1000.23
2023-01-19T23:42:44.829Z,1000.26
2023-01-19T23:45:17.988Z,1000.28
2023-01-19T23:47:50.935Z,1000.30
2023-01-19T23:50:23.930Z,1000.33
2023-01-19T23:52:56.904Z,1000.35
2023-01-19T23:55:29.923Z,1000.36
2023-01-19T23:58:02.971Z,1000.39
